createdAt,value
2023-05-19T00:01:32.457Z,61.57
2023-05-19T00:03:14.010Z,61.90
2023-05-19T00:04:55.896Z,61.35
2023-05-19T00:06:37.357Z,61.20
2023-05-19T00:08:18.826Z,60.63
2023-05-19T00:10:00.211Z,60.69
2023-05-19T00:11:41.554Z,61.18
2023-05-19T00:13:22.911Z,61.70
2023-05-19T00:15:04.260Z,61.34
2023-05-19T00:16:45.611Z,61.94
2023-05-19T00:18:26.931Z,61.43
2023-05-19T00:20:08.282Z,60.82
2023-05-19T00:21:49.602Z,60.12
2023-05-19T00:23:30.930Z,59.58
2023-05-19T00:25:12.322Z,58.26
2023-05-19T00:26:53.650Z,57.89
2023-05-19T00:28:34.946Z,59.42
2023-05-19T00:30:16.279Z,58.70
2023-05-19T00:31:57.653Z,58.50
2023-05-19T00:33:39.010Z,59.23
2023-05-19T00:35:20.394Z,59.73
2023-05-19T00:37:01.767Z,60.61
2023-05-19T00:38:43.127Z,60.82
2023-05-19T00:40:24.483Z,61.49
2023-05-19T00:42:05.846Z,61.64
2023-05-19T00:43:47.170Z,61.62
2023-05-19T00:45:28.500Z,60.67
2023-05-19T00:47:09.860Z,62.04
2023-05-19T00:48:51.213Z,60.36
2023-05-19T00:50:32.793Z,60.79
2023-05-19T00:52:14.316Z,62.91
2023-05-19T00:53:55.663Z,63.79
2023-05-19T00:55:36.995Z,64.58
2023-05-19T00:57:18.319Z,62.77
2023-05-19T00:58:59.647Z,61.74
2023-05-19T01:00:41.062Z,61.17
2023-05-19T01:02:23.044Z,60.59
2023-05-19T01:04:04.515Z,62.24
2023-05-19T01:05:45.889Z,62.52
2023-05-19T01:07:27.280Z,61.57
2023-05-19T01:09:08.629Z,61.34
2023-05-19T01:10:49.981Z,60.60
2023-05-19T01:12:31.330Z,60.59
2023-05-19T01:14:12.740Z,60.38
2023-05-19T01:15:54.097Z,59.29
2023-05-19T01:17:35.444Z,58.23
2023-05-19T01:19:17.344Z,58.68
2023-05-19T01:20:58.692Z,58.92
2023-05-19T01:22:40.004Z,59.23
2023-05-19T01:24:21.376Z,59.82
2023-05-19T01:26:02.726Z,60.08
2023-05-19T01:27:44.055Z,60.00
2023-05-19T01:29:25.404Z,59.66
2023-05-19T01:31:06.728Z,61.06
2023-05-19T01:32:48.074Z,60.18
2023-05-19T01:34:29.444Z,59.16
2023-05-19T01:36:10.761Z,58.75
2023-05-19T01:37:52.091Z,60.12
2023-05-19T01:39:33.441Z,60.18
2023-05-19T01:41:14.733Z,59.52
2023-05-19T01:42:57.574Z,59.65
2023-05-19T01:44:39.217Z,62.13
2023-05-19T01:46:20.591Z,62.78
2023-05-19T01:48:01.974Z,62.45
2023-05-19T01:49:43.372Z,62.31
2023-05-19T01:51:24.732Z,61.37
2023-05-19T01:53:06.113Z,61.65
2023-05-19T01:54:47.514Z,61.32
2023-05-19T01:56:28.817Z,61.14
2023-05-19T01:58:10.156Z,61.21
2023-05-19T01:59:51.499Z,61.07
2023-05-19T02:01:32.877Z,60.80
2023-05-19T02:03:14.237Z,60.27
2023-05-19T02:04:55.631Z,60.36
2023-05-19T02:06:36.962Z,59.79
2023-05-19T02:08:18.331Z,60.38
2023-05-19T02:09:59.686Z,60.17
2023-05-19T02:11:41.046Z,60.43
2023-05-19T02:13:22.373Z,59.14
2023-05-19T02:15:03.766Z,58.81
2023-05-19T02:16:45.107Z,58.01
2023-05-19T02:18:26.489Z,56.91
2023-05-19T02:20:07.871Z,58.64
2023-05-19T02:21:49.200Z,57.88
2023-05-19T02:23:30.565Z,57.30
2023-05-19T02:25:11.955Z,58.37
2023-05-19T02:26:53.280Z,61.22
2023-05-19T02:28:34.588Z,62.72
2023-05-19T02:30:15.963Z,63.86
2023-05-19T02:31:57.373Z,63.23
2023-05-19T02:33:38.758Z,63.77
2023-05-19T02:35:20.138Z,63.00
2023-05-19T02:37:01.511Z,62.11
2023-05-19T02:38:42.906Z,62.13
2023-05-19T02:40:24.302Z,60.74
2023-05-19T02:42:05.646Z,61.62
2023-05-19T02:43:46.992Z,63.26
2023-05-19T02:45:28.343Z,65.59
2023-05-19T02:47:09.789Z,65.84
2023-05-19T02:48:51.161Z,67.21
2023-05-19T02:50:32.681Z,67.82
2023-05-19T02:52:14.190Z,67.05
2023-05-19T02:53:55.555Z,68.38
2023-05-19T02:55:36.909Z,68.10
2023-05-19T02:57:18.213Z,67.02
2023-05-19T02:58:59.550Z,65.72
2023-05-19T03:00:40.923Z,64.74
2023-05-19T03:02:22.262Z,63.52
2023-05-19T03:04:03.710Z,62.32
2023-05-19T03:05:45.081Z,63.09
2023-05-19T03:07:26.397Z,63.07
2023-05-19T03:09:07.752Z,63.25
2023-05-19T03:10:49.102Z,63.89
2023-05-19T03:12:30.435Z,64.73
2023-05-19T03:14:11.821Z,64.71
2023-05-19T03:15:53.246Z,64.69
2023-05-19T03:17:34.782Z,64.12
2023-05-19T03:19:16.215Z,63.64
2023-05-19T03:20:57.575Z,62.65
2023-05-19T03:22:38.955Z,62.12
2023-05-19T03:24:20.313Z,60.84
2023-05-19T03:26:01.627Z,60.06
2023-05-19T03:27:42.961Z,60.42
2023-05-19T03:29:24.299Z,61.35
2023-05-19T03:31:05.621Z,60.78
2023-05-19T03:32:47.037Z,60.43
2023-05-19T03:34:28.413Z,59.78
2023-05-19T03:36:09.804Z,61.35
2023-05-19T03:37:51.112Z,62.84
2023-05-19T03:39:32.485Z,61.55
2023-05-19T03:41:13.802Z,63.18
2023-05-19T03:42:55.145Z,63.29
2023-05-19T03:44:36.509Z,63.16
2023-05-19T03:46:18.002Z,62.14
2023-05-19T03:47:59.563Z,61.42
2023-05-19T03:49:40.967Z,59.93
2023-05-19T03:51:22.426Z,60.86
2023-05-19T03:53:03.774Z,60.74
2023-05-19T03:54:45.123Z,61.17
2023-05-19T03:56:26.422Z,60.77
2023-05-19T03:58:07.751Z,59.97
2023-05-19T03:59:49.079Z,60.54
2023-05-19T04:01:30.422Z,60.21
2023-05-19T04:03:11.931Z,60.90
2023-05-19T04:04:53.424Z,61.42
2023-05-19T04:06:34.806Z,61.38
2023-05-19T04:08:16.157Z,61.20
2023-05-19T04:09:57.534Z,61.17
2023-05-19T04:11:38.895Z,61.10
2023-05-19T04:13:20.250Z,62.60
2023-05-19T04:15:01.758Z,62.44
2023-05-19T04:16:43.111Z,62.51
2023-05-19T04:18:25.121Z,66.34
2023-05-19T04:20:07.694Z,66.89
2023-05-19T04:21:49.019Z,66.33
2023-05-19T04:23:30.335Z,66.99
2023-05-19T04:25:11.654Z,66.07
2023-05-19T04:26:53.008Z,65.22
2023-05-19T04:28:34.333Z,65.05
2023-05-19T04:30:16.712Z,63.95
2023-05-19T04:31:59.738Z,63.18
2023-05-19T04:33:41.065Z,62.97
2023-05-19T04:35:22.381Z,62.39
2023-05-19T04:37:03.753Z,62.23
2023-05-19T04:38:45.086Z,60.91
2023-05-19T04:40:26.416Z,61.08
2023-05-19T04:42:07.762Z,61.44
2023-05-19T04:43:49.072Z,60.39
2023-05-19T04:45:30.394Z,60.26
2023-05-19T04:47:11.934Z,59.35
2023-05-19T04:48:53.325Z,60.29
2023-05-19T04:50:34.878Z,59.08
2023-05-19T04:52:16.346Z,58.99
2023-05-19T04:53:57.685Z,59.33
2023-05-19T04:55:39.048Z,59.19
2023-05-19T04:57:20.408Z,59.31
2023-05-19T04:59:01.729Z,59.29
2023-05-19T05:00:43.042Z,60.53
2023-05-19T05:02:24.469Z,59.60
2023-05-19T05:04:05.918Z,59.59
2023-05-19T05:05:47.353Z,60.23
2023-05-19T05:07:30.334Z,61.05
2023-05-19T05:09:13.489Z,61.42
2023-05-19T05:10:54.839Z,60.67
2023-05-19T05:12:36.165Z,60.68
2023-05-19T05:14:17.483Z,59.38
2023-05-19T05:15:58.827Z,59.03
2023-05-19T05:17:40.211Z,58.33
2023-05-19T05:19:21.590Z,57.87
2023-05-19T05:21:03.021Z,57.83
2023-05-19T05:22:44.355Z,59.69
2023-05-19T05:24:25.666Z,58.88
2023-05-19T05:26:07.018Z,58.51
2023-05-19T05:27:48.371Z,58.05
2023-05-19T05:29:29.714Z,57.43
2023-05-19T05:31:11.155Z,59.05
2023-05-19T05:32:52.632Z,60.25
2023-05-19T05:34:34.041Z,61.59
2023-05-19T05:36:15.378Z,61.54
2023-05-19T05:37:56.710Z,63.25
2023-05-19T05:39:38.068Z,64.49
2023-05-19T05:41:19.434Z,63.20
2023-05-19T05:43:00.768Z,63.51
2023-05-19T05:44:42.086Z,63.98
2023-05-19T05:46:23.515Z,65.55
2023-05-19T05:48:04.925Z,66.27
2023-05-19T05:49:46.339Z,67.59
2023-05-19T05:51:27.657Z,67.55
2023-05-19T05:53:09.000Z,68.57
2023-05-19T05:54:50.339Z,68.12
2023-05-19T05:56:31.717Z,66.96
2023-05-19T05:58:13.110Z,64.24
2023-05-19T05:59:54.441Z,63.80
2023-05-19T06:01:35.865Z,64.79
2023-05-19T06:03:17.377Z,63.39
2023-05-19T06:04:58.945Z,64.62
2023-05-19T06:06:40.329Z,63.95
2023-05-19T06:08:21.754Z,62.81
2023-05-19T06:10:03.066Z,61.22
2023-05-19T06:11:44.421Z,60.18
2023-05-19T06:13:25.855Z,58.84
2023-05-19T06:15:07.180Z,57.81
2023-05-19T06:16:48.533Z,58.08
2023-05-19T06:18:29.868Z,59.66
2023-05-19T06:20:11.175Z,60.61
2023-05-19T06:21:52.551Z,60.32
2023-05-19T06:23:33.909Z,60.18
2023-05-19T06:25:15.265Z,59.68
2023-05-19T06:26:56.638Z,57.94
2023-05-19T06:28:37.962Z,57.61
2023-05-19T06:30:19.293Z,57.59
2023-05-19T06:32:00.646Z,58.15
2023-05-19T06:33:42.031Z,58.66
2023-05-19T06:35:23.358Z,59.75
2023-05-19T06:37:04.683Z,60.55
2023-05-19T06:38:46.078Z,59.94
2023-05-19T06:40:27.410Z,59.12
2023-05-19T06:42:08.743Z,59.37
2023-05-19T06:43:50.182Z,58.13
2023-05-19T06:45:31.504Z,58.79
2023-05-19T06:47:13.006Z,58.25
2023-05-19T06:48:54.522Z,57.94
2023-05-19T06:50:35.932Z,57.94
2023-05-19T06:52:17.291Z,56.86
2023-05-19T06:53:58.635Z,57.46
2023-05-19T06:55:54.440Z,58.34
2023-05-19T06:57:39.127Z,57.97
2023-05-19T06:59:20.501Z,59.09
2023-05-19T07:01:01.896Z,57.86
2023-05-19T07:02:43.283Z,58.94
2023-05-19T07:04:24.702Z,58.54
2023-05-19T07:06:08.108Z,57.93
2023-05-19T07:07:49.853Z,58.56
2023-05-19T07:09:31.239Z,57.57
2023-05-19T07:11:12.650Z,58.27
2023-05-19T07:12:53.990Z,58.37
2023-05-19T07:14:35.296Z,57.57
2023-05-19T07:16:16.715Z,57.53
2023-05-19T07:17:58.221Z,57.86
2023-05-19T07:19:39.593Z,56.57
2023-05-19T07:21:20.973Z,56.42
2023-05-19T07:23:02.332Z,56.05
2023-05-19T07:24:43.673Z,56.12
2023-05-19T07:26:25.108Z,55.34
2023-05-19T07:28:06.435Z,54.55
2023-05-19T07:29:47.997Z,54.88
2023-05-19T07:31:29.411Z,54.81
2023-05-19T07:33:10.874Z,55.53
2023-05-19T07:34:52.326Z,55.39
2023-05-19T07:36:33.755Z,55.78
2023-05-19T07:38:15.224Z,55.55
2023-05-19T07:39:56.603Z,55.55
2023-05-19T07:41:38.005Z,55.42
2023-05-19T07:43:19.368Z,54.25
2023-05-19T07:45:00.728Z,53.59
2023-05-19T07:46:42.053Z,54.24
2023-05-19T07:48:23.372Z,54.85
2023-05-19T07:50:04.697Z,54.85
2023-05-19T07:51:46.038Z,55.89
2023-05-19T07:53:27.396Z,58.97
2023-05-19T07:55:08.744Z,56.63
2023-05-19T07:56:50.209Z,54.79
2023-05-19T07:58:31.557Z,55.13
2023-05-19T08:00:12.910Z,53.19
2023-05-19T08:01:54.331Z,55.17
2023-05-19T08:03:35.918Z,53.90
2023-05-19T08:05:17.493Z,54.31
2023-05-19T08:06:58.890Z,53.37
2023-05-19T08:08:40.230Z,53.38
2023-05-19T08:10:21.596Z,55.88
2023-05-19T08:12:02.996Z,54.89
2023-05-19T08:13:44.393Z,54.79
2023-05-19T08:15:25.899Z,54.20
2023-05-19T08:17:07.442Z,53.74
2023-05-19T08:18:48.850Z,52.71
2023-05-19T08:20:30.324Z,53.17
2023-05-19T08:22:11.749Z,54.03
2023-05-19T08:23:53.158Z,55.45
2023-05-19T08:25:34.564Z,53.47
2023-05-19T08:27:15.885Z,52.97
2023-05-19T08:28:57.226Z,52.13
2023-05-19T08:30:38.576Z,53.97
2023-05-19T08:32:19.929Z,54.05
2023-05-19T08:34:01.308Z,54.76
2023-05-19T08:35:42.676Z,54.05
2023-05-19T08:37:23.986Z,54.71
2023-05-19T08:39:05.297Z,54.21
2023-05-19T08:40:46.672Z,54.58
2023-05-19T08:42:28.002Z,55.74
2023-05-19T08:44:09.376Z,53.01
2023-05-19T08:45:50.868Z,53.58
2023-05-19T08:47:32.195Z,52.79
2023-05-19T08:49:13.541Z,53.38
2023-05-19T08:50:54.917Z,52.57
2023-05-19T08:52:36.239Z,53.70
2023-05-19T08:54:17.583Z,52.76
2023-05-19T08:55:58.927Z,54.76
2023-05-19T08:57:40.489Z,52.08
2023-05-19T08:59:21.837Z,49.70
2023-05-19T09:01:03.171Z,50.98
2023-05-19T09:02:55.084Z,50.66
2023-05-19T09:04:42.524Z,49.48
2023-05-19T09:06:23.881Z,50.31
2023-05-19T09:08:05.263Z,50.20
2023-05-19T09:09:46.604Z,50.55
2023-05-19T09:11:27.950Z,49.42
2023-05-19T09:13:09.337Z,49.80
2023-05-19T09:14:50.654Z,49.95
2023-05-19T09:16:32.027Z,49.19
2023-05-19T09:18:13.444Z,50.10
2023-05-19T09:19:54.854Z,50.26
2023-05-19T09:21:36.212Z,51.98
2023-05-19T09:23:17.523Z,52.71
2023-05-19T09:24:58.907Z,50.84
2023-05-19T09:26:40.336Z,50.40
2023-05-19T09:28:21.756Z,50.02
2023-05-19T09:30:03.228Z,50.52
2023-05-19T09:31:44.600Z,51.67
2023-05-19T09:33:25.989Z,49.78
2023-05-19T09:35:07.344Z,50.41
2023-05-19T09:36:48.709Z,50.33
2023-05-19T09:38:30.044Z,49.59
2023-05-19T09:40:13.025Z,50.83
2023-05-19T09:41:54.557Z,50.47
2023-05-19T09:43:35.997Z,52.22
2023-05-19T09:45:17.410Z,50.20
2023-05-19T09:46:58.851Z,50.55
2023-05-19T09:48:40.205Z,49.46
2023-05-19T09:50:21.536Z,48.73
2023-05-19T09:52:02.926Z,47.79
2023-05-19T09:53:44.247Z,48.39
2023-05-19T09:55:25.647Z,48.80
2023-05-19T09:57:08.822Z,48.14
2023-05-19T09:58:50.292Z,46.14
2023-05-19T10:00:31.761Z,47.04
2023-05-19T10:02:13.235Z,47.82
2023-05-19T10:03:54.568Z,47.78
2023-05-19T10:05:36.087Z,45.47
2023-05-19T10:07:17.634Z,46.52
2023-05-19T10:08:58.997Z,45.67
2023-05-19T10:10:40.364Z,44.44
2023-05-19T10:12:21.745Z,45.61
2023-05-19T10:14:03.114Z,45.47
2023-05-19T10:15:57.141Z,45.52
2023-05-19T10:17:40.514Z,45.58
2023-05-19T10:19:22.015Z,46.09
2023-05-19T10:21:03.461Z,43.99
2023-05-19T10:22:44.845Z,44.61
2023-05-19T10:24:26.266Z,42.95
2023-05-19T10:26:07.734Z,45.16
2023-05-19T10:27:49.104Z,47.36
2023-05-19T10:29:30.448Z,45.68
2023-05-19T10:31:11.751Z,45.82
2023-05-19T10:32:53.115Z,47.72
2023-05-19T10:34:34.504Z,44.86
2023-05-19T10:36:15.843Z,45.75
2023-05-19T10:37:57.199Z,43.55
2023-05-19T10:39:38.578Z,45.18
2023-05-19T10:41:19.931Z,45.05
2023-05-19T10:43:01.286Z,44.07
2023-05-19T10:44:42.945Z,42.59
2023-05-19T10:46:24.296Z,42.75
2023-05-19T10:48:05.738Z,43.38
2023-05-19T10:49:47.108Z,43.75
2023-05-19T10:51:28.431Z,43.96
2023-05-19T10:53:09.784Z,42.17
2023-05-19T10:54:51.158Z,42.98
2023-05-19T10:56:32.493Z,42.98
2023-05-19T10:58:13.850Z,44.17
2023-05-19T10:59:55.188Z,43.78
2023-05-19T11:01:36.617Z,43.05
2023-05-19T11:03:17.999Z,44.39
2023-05-19T11:04:59.331Z,44.20
2023-05-19T11:06:40.675Z,43.68
2023-05-19T11:08:22.044Z,44.95
2023-05-19T11:10:03.396Z,44.46
2023-05-19T11:11:44.741Z,44.86
2023-05-19T11:13:26.249Z,43.24
2023-05-19T11:15:07.604Z,43.56
2023-05-19T11:16:48.980Z,44.24
2023-05-19T11:18:30.399Z,44.12
2023-05-19T11:20:11.741Z,44.94
2023-05-19T11:21:53.089Z,43.72
2023-05-19T11:23:35.566Z,42.12
2023-05-19T11:25:17.106Z,41.64
2023-05-19T11:26:58.409Z,41.97
2023-05-19T11:28:39.770Z,42.61
2023-05-19T11:30:21.112Z,43.25
2023-05-19T11:32:02.514Z,43.80
2023-05-19T11:33:43.940Z,43.87
2023-05-19T11:35:25.272Z,44.12
2023-05-19T11:37:06.622Z,44.76
2023-05-19T11:38:47.984Z,44.30
2023-05-19T11:40:29.356Z,45.13
2023-05-19T11:42:10.762Z,45.50
2023-05-19T11:43:52.127Z,44.97
2023-05-19T11:45:33.590Z,46.00
2023-05-19T11:47:15.099Z,45.25
2023-05-19T11:48:56.464Z,45.38
2023-05-19T11:50:37.785Z,45.15
2023-05-19T11:52:19.173Z,45.53
2023-05-19T11:54:00.569Z,46.10
2023-05-19T11:55:41.893Z,46.22
2023-05-19T11:57:23.361Z,47.37
2023-05-19T11:59:04.706Z,48.42
2023-05-19T12:00:46.246Z,48.53
2023-05-19T12:02:27.999Z,49.92
2023-05-19T12:04:09.467Z,49.86
2023-05-19T12:05:50.914Z,48.41
2023-05-19T12:07:32.439Z,49.79
2023-05-19T12:09:13.821Z,49.16
2023-05-19T12:10:55.296Z,49.10
2023-05-19T12:12:36.652Z,48.52
2023-05-19T12:14:18.006Z,48.44
2023-05-19T12:15:59.405Z,48.38
2023-05-19T12:17:40.805Z,46.69
2023-05-19T12:19:22.262Z,46.83
2023-05-19T12:21:03.622Z,45.99
2023-05-19T12:22:44.980Z,46.79
2023-05-19T12:24:26.367Z,45.40
2023-05-19T12:26:07.710Z,46.33
2023-05-19T12:27:49.055Z,46.13
2023-05-19T12:29:30.403Z,46.47
2023-05-19T12:31:11.764Z,46.13
2023-05-19T12:32:53.179Z,47.18
2023-05-19T12:34:34.597Z,47.05
2023-05-19T12:36:15.917Z,45.98
2023-05-19T12:37:57.273Z,46.44
2023-05-19T12:39:38.614Z,48.18
2023-05-19T12:41:19.929Z,45.24
2023-05-19T12:43:01.328Z,46.03
2023-05-19T12:44:42.676Z,45.06
2023-05-19T12:46:24.074Z,45.48
2023-05-19T12:48:05.664Z,45.42
2023-05-19T12:49:47.086Z,44.53
2023-05-19T12:51:28.720Z,44.57
2023-05-19T12:53:10.121Z,44.17
2023-05-19T12:54:51.477Z,43.92
2023-05-19T12:56:32.807Z,43.88
2023-05-19T12:58:14.199Z,43.76
2023-05-19T12:59:55.556Z,42.57
2023-05-19T13:01:36.993Z,42.87
2023-05-19T13:03:18.447Z,44.59
2023-05-19T13:04:59.890Z,45.62
2023-05-19T13:06:41.204Z,45.21
2023-05-19T13:08:22.580Z,45.44
2023-05-19T13:10:03.888Z,45.15
2023-05-19T13:11:45.209Z,46.27
2023-05-19T13:13:26.569Z,47.03
2023-05-19T13:15:07.885Z,46.35
2023-05-19T13:16:49.319Z,45.89
2023-05-19T13:18:30.713Z,45.46
2023-05-19T13:20:12.039Z,47.03
2023-05-19T13:21:53.414Z,46.74
2023-05-19T13:23:34.767Z,46.71
2023-05-19T13:25:16.102Z,46.10
2023-05-19T13:26:57.473Z,46.42
2023-05-19T13:28:38.819Z,47.34
2023-05-19T13:30:20.159Z,46.84
2023-05-19T13:32:01.685Z,47.40
2023-05-19T13:33:43.105Z,47.37
2023-05-19T13:35:24.676Z,46.05
2023-05-19T13:37:07.675Z,47.62
2023-05-19T13:38:49.187Z,47.54
2023-05-19T13:40:30.580Z,47.41
2023-05-19T13:42:11.985Z,48.46
2023-05-19T13:43:53.343Z,48.72
2023-05-19T13:45:34.682Z,48.80
2023-05-19T13:47:16.013Z,50.19
2023-05-19T13:48:57.406Z,49.78
2023-05-19T13:50:38.769Z,50.76
2023-05-19T13:52:20.115Z,49.79
2023-05-19T13:54:01.496Z,51.01
2023-05-19T13:55:42.845Z,51.36
2023-05-19T13:57:24.211Z,51.13
2023-05-19T13:59:05.560Z,49.57
2023-05-19T14:00:46.887Z,50.67
2023-05-19T14:02:28.367Z,52.31
2023-05-19T14:04:10.027Z,50.15
2023-05-19T14:05:51.468Z,49.63
2023-05-19T14:07:32.797Z,50.35
2023-05-19T14:09:14.157Z,51.94
2023-05-19T14:10:55.477Z,50.33
2023-05-19T14:12:43.718Z,49.71
2023-05-19T14:14:38.176Z,49.69
2023-05-19T14:16:19.605Z,49.57
2023-05-19T14:18:00.997Z,49.84
2023-05-19T14:19:42.383Z,50.17
2023-05-19T14:21:23.738Z,49.69
2023-05-19T14:23:05.093Z,49.34
2023-05-19T14:24:46.466Z,49.32
2023-05-19T14:26:29.324Z,49.70
2023-05-19T14:28:10.935Z,50.96
2023-05-19T14:29:52.336Z,50.17
2023-05-19T14:31:34.099Z,50.31
2023-05-19T14:33:15.522Z,50.31
2023-05-19T14:34:56.951Z,50.42
2023-05-19T14:36:38.267Z,49.78
2023-05-19T14:38:19.598Z,50.35
2023-05-19T14:40:00.958Z,50.63
2023-05-19T14:41:42.273Z,50.40
2023-05-19T14:43:23.611Z,51.33
2023-05-19T14:45:04.990Z,51.02
2023-05-19T14:46:46.425Z,51.42
2023-05-19T14:48:27.760Z,51.59
2023-05-19T14:50:09.168Z,51.06
2023-05-19T14:51:50.526Z,51.41
2023-05-19T14:53:31.896Z,50.52
2023-05-19T14:55:13.262Z,51.83
2023-05-19T14:56:54.614Z,51.44
2023-05-19T14:58:35.948Z,50.83
2023-05-19T15:00:17.273Z,50.73
2023-05-19T15:01:58.669Z,51.18
2023-05-19T15:03:40.019Z,51.53
2023-05-19T15:05:21.385Z,51.79
2023-05-19T15:07:09.868Z,52.78
2023-05-19T15:08:52.250Z,53.43
2023-05-19T15:10:33.922Z,53.62
2023-05-19T15:12:15.427Z,53.46
2023-05-19T15:13:56.767Z,52.75
2023-05-19T15:15:38.179Z,53.00
2023-05-19T15:17:19.635Z,53.36
2023-05-19T15:19:01.086Z,51.94
2023-05-19T15:20:42.452Z,53.43
2023-05-19T15:22:23.782Z,52.59
2023-05-19T15:24:05.137Z,52.70
2023-05-19T15:25:46.478Z,52.75
2023-05-19T15:27:27.838Z,53.04
2023-05-19T15:29:09.154Z,52.13
2023-05-19T15:30:50.531Z,53.22
2023-05-19T15:32:31.949Z,52.81
2023-05-19T15:34:13.321Z,51.92
2023-05-19T15:35:54.700Z,51.86
2023-05-19T15:37:36.042Z,50.77
2023-05-19T15:39:17.448Z,51.08
2023-05-19T15:40:58.848Z,50.50
2023-05-19T15:42:40.177Z,50.29
2023-05-19T15:44:21.574Z,50.29
2023-05-19T15:46:02.973Z,50.21
2023-05-19T15:47:45.514Z,49.98
2023-05-19T15:49:27.095Z,50.37
2023-05-19T15:51:08.445Z,50.45
2023-05-19T15:52:49.773Z,51.77
2023-05-19T15:54:31.127Z,52.04
2023-05-19T15:56:12.477Z,52.24
2023-05-19T15:57:53.776Z,52.17
2023-05-19T15:59:35.116Z,53.05
2023-05-19T16:01:16.506Z,53.06
2023-05-19T16:02:57.882Z,53.46
2023-05-19T16:04:39.324Z,53.20
2023-05-19T16:06:20.654Z,53.71
2023-05-19T16:08:02.006Z,53.62
2023-05-19T16:09:43.329Z,53.64
2023-05-19T16:11:24.703Z,53.51
2023-05-19T16:13:06.025Z,53.85
2023-05-19T16:14:47.359Z,53.24
2023-05-19T16:16:28.844Z,53.37
2023-05-19T16:18:10.320Z,53.33
2023-05-19T16:19:51.763Z,53.52
2023-05-19T16:21:33.171Z,53.44
2023-05-19T16:23:14.798Z,52.99
2023-05-19T16:24:56.420Z,52.89
2023-05-19T16:26:37.826Z,52.87
2023-05-19T16:28:19.198Z,52.97
2023-05-19T16:30:00.658Z,52.78
2023-05-19T16:31:42.074Z,52.52
2023-05-19T16:33:23.727Z,54.03
2023-05-19T16:35:05.290Z,53.28
2023-05-19T16:36:46.742Z,53.70
2023-05-19T16:38:28.094Z,53.88
2023-05-19T16:40:09.424Z,54.46
2023-05-19T16:41:50.765Z,54.30
2023-05-19T16:43:32.108Z,53.28
2023-05-19T16:45:13.446Z,53.28
2023-05-19T16:46:54.799Z,53.71
2023-05-19T16:48:36.297Z,54.44
2023-05-19T16:50:17.829Z,54.22
2023-05-19T16:51:59.250Z,54.00
2023-05-19T16:53:40.603Z,53.94
2023-05-19T16:55:22.115Z,54.07
2023-05-19T16:57:03.724Z,54.01
2023-05-19T16:58:45.279Z,53.98
2023-05-19T17:00:26.885Z,54.56
2023-05-19T17:02:08.288Z,54.26
2023-05-19T17:03:49.731Z,54.03
2023-05-19T17:05:31.881Z,54.86
2023-05-19T17:07:13.480Z,55.03
2023-05-19T17:08:54.818Z,54.67
2023-05-19T17:10:36.342Z,54.89
2023-05-19T17:12:18.056Z,54.50
2023-05-19T17:13:59.616Z,53.88
2023-05-19T17:15:43.032Z,53.14
2023-05-19T17:17:25.052Z,53.32
2023-05-19T17:19:06.804Z,53.06
2023-05-19T17:20:48.385Z,53.01
2023-05-19T17:22:30.479Z,53.28
2023-05-19T17:24:11.869Z,53.08
2023-05-19T17:25:53.344Z,52.37
2023-05-19T17:27:34.698Z,52.07
2023-05-19T17:29:16.064Z,52.24
2023-05-19T17:30:58.089Z,52.48
2023-05-19T17:32:40.017Z,53.32
2023-05-19T17:34:21.603Z,53.81
2023-05-19T17:36:02.957Z,54.62
2023-05-19T17:37:44.532Z,53.76
2023-05-19T17:39:26.278Z,54.11
2023-05-19T17:41:07.709Z,55.44
2023-05-19T17:42:49.173Z,55.49
2023-05-19T17:44:32.507Z,54.33
2023-05-19T17:46:14.171Z,54.48
2023-05-19T17:47:55.667Z,54.68
2023-05-19T17:49:37.022Z,55.40
2023-05-19T17:51:18.488Z,56.47
2023-05-19T17:53:00.632Z,56.77
2023-05-19T17:54:42.135Z,56.80
2023-05-19T17:56:23.698Z,56.98
2023-05-19T17:58:05.324Z,57.95
2023-05-19T17:59:46.667Z,57.10
2023-05-19T18:01:28.243Z,56.50
2023-05-19T18:03:09.881Z,56.29
2023-05-19T18:04:51.236Z,56.21
2023-05-19T18:06:32.851Z,56.19
2023-05-19T18:08:14.363Z,55.68
2023-05-19T18:09:55.689Z,56.17
2023-05-19T18:11:37.040Z,57.17
2023-05-19T18:13:18.685Z,56.61
2023-05-19T18:15:00.213Z,57.33
2023-05-19T18:16:41.828Z,57.27
2023-05-19T18:18:23.380Z,57.26
2023-05-19T18:20:04.738Z,57.82
2023-05-19T18:21:46.094Z,58.21
2023-05-19T18:23:28.025Z,57.36
2023-05-19T18:25:09.586Z,58.04
2023-05-19T18:26:50.939Z,58.51
2023-05-19T18:28:32.282Z,57.13
2023-05-19T18:30:13.636Z,57.81
2023-05-19T18:31:55.268Z,58.29
2023-05-19T18:33:36.825Z,58.61
2023-05-19T18:35:18.154Z,58.02
2023-05-19T18:36:59.488Z,57.83
2023-05-19T18:38:41.160Z,57.66
2023-05-19T18:40:22.759Z,58.24
2023-05-19T18:42:04.098Z,58.86
2023-05-19T18:43:45.446Z,57.96
2023-05-19T18:45:26.825Z,57.74
2023-05-19T18:47:08.201Z,58.22
2023-05-19T18:48:49.569Z,57.14
2023-05-19T18:50:30.992Z,57.62
2023-05-19T18:52:12.370Z,58.05
2023-05-19T18:53:53.692Z,57.41
2023-05-19T18:55:37.095Z,57.07
2023-05-19T18:57:19.656Z,57.56
2023-05-19T18:59:01.063Z,56.90
2023-05-19T19:00:42.665Z,56.93
2023-05-19T19:02:24.438Z,56.79
2023-05-19T19:04:05.842Z,56.00
2023-05-19T19:05:47.424Z,56.43
2023-05-19T19:07:29.017Z,56.43
2023-05-19T19:09:10.607Z,56.82
2023-05-19T19:10:52.163Z,57.67
2023-05-19T19:12:33.564Z,57.97
2023-05-19T19:14:14.903Z,57.93
2023-05-19T19:15:56.241Z,57.83
2023-05-19T19:17:37.618Z,57.69
2023-05-19T19:19:19.121Z,58.04
2023-05-19T19:21:00.531Z,57.00
2023-05-19T19:22:42.570Z,57.28
2023-05-19T19:24:26.782Z,57.67
2023-05-19T19:26:08.129Z,57.90
2023-05-19T19:27:49.498Z,57.77
2023-05-19T19:29:30.826Z,57.19
2023-05-19T19:31:12.187Z,56.16
2023-05-19T19:32:53.677Z,55.96
2023-05-19T19:34:35.125Z,55.92
2023-05-19T19:36:16.460Z,57.37
2023-05-19T19:37:57.809Z,57.40
2023-05-19T19:39:39.129Z,57.40
2023-05-19T19:41:20.455Z,56.34
2023-05-19T19:43:01.806Z,56.57
2023-05-19T19:44:43.796Z,57.28
2023-05-19T19:46:25.705Z,57.53
2023-05-19T19:48:07.339Z,57.91
2023-05-19T19:49:48.778Z,57.94
2023-05-19T19:51:30.097Z,58.04
2023-05-19T19:53:11.479Z,57.75
2023-05-19T19:54:53.423Z,58.05
2023-05-19T19:56:34.944Z,58.27
2023-05-19T19:58:16.295Z,58.74
2023-05-19T19:59:57.633Z,58.66
2023-05-19T20:01:39.021Z,59.40
2023-05-19T20:03:21.481Z,58.13
2023-05-19T20:05:03.087Z,57.83
2023-05-19T20:06:44.410Z,59.25
2023-05-19T20:08:25.982Z,58.47
2023-05-19T20:10:07.490Z,58.86
2023-05-19T20:11:49.048Z,59.85
2023-05-19T20:13:32.082Z,58.94
2023-05-19T20:15:14.040Z,59.40
2023-05-19T20:16:55.383Z,59.08
2023-05-19T20:18:37.486Z,59.07
2023-05-19T20:20:18.985Z,59.55
2023-05-19T20:22:00.379Z,58.72
2023-05-19T20:23:41.974Z,58.70
2023-05-19T20:25:23.527Z,59.21
2023-05-19T20:27:04.877Z,59.90
2023-05-19T20:28:46.256Z,58.98
2023-05-19T20:30:27.886Z,59.21
2023-05-19T20:32:09.667Z,58.97
2023-05-19T20:33:51.280Z,59.30
2023-05-19T20:35:32.785Z,59.42
2023-05-19T20:37:14.450Z,58.95
2023-05-19T20:38:56.069Z,58.56
2023-05-19T20:40:37.603Z,58.85
2023-05-19T20:42:19.140Z,58.07
2023-05-19T20:44:00.516Z,58.60
2023-05-19T20:45:41.879Z,58.60
2023-05-19T20:47:23.220Z,59.09
2023-05-19T20:49:04.567Z,58.20
2023-05-19T20:50:45.915Z,58.69
2023-05-19T20:52:27.274Z,58.30
2023-05-19T20:54:08.643Z,57.63
2023-05-19T20:55:50.065Z,58.40
2023-05-19T20:57:32.120Z,57.96
2023-05-19T20:59:13.711Z,57.32
2023-05-19T21:00:55.345Z,58.25
2023-05-19T21:02:36.934Z,58.14
2023-05-19T21:04:18.480Z,57.77
2023-05-19T21:06:00.103Z,58.28
2023-05-19T21:07:41.476Z,58.36
2023-05-19T21:09:22.867Z,57.84
2023-05-19T21:11:04.249Z,58.28
2023-05-19T21:12:45.579Z,58.44
2023-05-19T21:14:26.906Z,57.82
2023-05-19T21:16:08.282Z,58.11
2023-05-19T21:17:49.697Z,58.00
2023-05-19T21:19:31.108Z,58.01
2023-05-19T21:21:12.494Z,57.91
2023-05-19T21:22:53.829Z,58.79
2023-05-19T21:24:35.186Z,58.89
2023-05-19T21:26:17.012Z,58.97
2023-05-19T21:27:58.650Z,58.67
2023-05-19T21:29:40.172Z,58.10
2023-05-19T21:31:21.742Z,57.81
2023-05-19T21:33:03.304Z,58.10
2023-05-19T21:34:44.875Z,58.28
2023-05-19T21:36:26.479Z,58.02
2023-05-19T21:38:22.218Z,58.31
2023-05-19T21:40:05.112Z,58.63
2023-05-19T21:41:46.562Z,58.31
2023-05-19T21:43:28.201Z,58.60
2023-05-19T21:45:09.774Z,58.40
2023-05-19T21:46:51.202Z,58.80
2023-05-19T21:48:32.674Z,59.14